createdAt,value
2022-12-20T00:02:08.388Z,-2.57
2022-12-20T00:05:14.796Z,-2.64
2022-12-20T00:08:20.738Z,-2.61
2022-12-20T00:11:28.177Z,-2.62
2022-12-20T00:14:36.515Z,-2.63
2022-12-20T00:17:43.032Z,-2.63
2022-12-20T00:20:48.532Z,-2.56
2022-12-20T00:23:55.974Z,-2.62
2022-12-20T00:27:01.343Z,-2.45
2022-12-20T00:30:12.233Z,-2.47
2022-12-20T00:33:17.817Z,-2.42
2022-12-20T00:36:27.367Z,-2.40
2022-12-20T00:39:32.757Z,-2.47
2022-12-20T00:42:38.992Z,-2.50
2022-12-20T00:45:47.329Z,-2.34
2022-12-20T00:48:54.214Z,-2.29
2022-12-20T00:51:59.644Z,-2.36
2022-12-20T00:55:05.932Z,-2.32
2022-12-20T00:58:11.379Z,-2.20
2022-12-20T01:01:27.321Z,-2.15
2022-12-20T01:04:32.856Z,-2.17
2022-12-20T01:07:39.508Z,-2.17
2022-12-20T01:10:45.067Z,-2.29
2022-12-20T01:13:56.274Z,-2.37
2022-12-20T01:17:04.547Z,-2.45
2022-12-20T01:20:12.225Z,-2.38
2022-12-20T01:23:17.668Z,-2.38
2022-12-20T01:26:27.495Z,-2.32
2022-12-20T01:29:32.958Z,-2.33
2022-12-20T01:32:42.004Z,-2.37
2022-12-20T01:35:59.587Z,-2.44
2022-12-20T01:39:09.110Z,-2.50
2022-12-20T01:42:18.720Z,-2.49
2022-12-20T01:45:32.876Z,-2.50
2022-12-20T01:48:41.694Z,-2.42
2022-12-20T01:51:55.213Z,-2.40
2022-12-20T01:55:11.916Z,-2.41
2022-12-20T01:58:23.037Z,-2.41
2022-12-20T02:01:28.948Z,-2.57
2022-12-20T02:04:38.589Z,-2.28
2022-12-20T02:07:49.484Z,-2.32
2022-12-20T02:11:24.535Z,-2.26
2022-12-20T02:15:00.702Z,-2.43
2022-12-20T02:18:24.530Z,-2.16
2022-12-20T02:21:45.372Z,-2.18
2022-12-20T02:25:46.254Z,-2.18
2022-12-20T02:29:24.452Z,-2.36
2022-12-20T02:32:47.995Z,-2.18
2022-12-20T02:35:54.237Z,-2.11
2022-12-20T02:38:59.652Z,-2.13
2022-12-20T02:42:12.370Z,-2.36
2022-12-20T02:45:17.621Z,-2.40
2022-12-20T02:48:35.263Z,-2.45
2022-12-20T02:51:45.475Z,-2.46
2022-12-20T02:54:52.617Z,-2.63
2022-12-20T02:58:08.488Z,-2.62
2022-12-20T03:01:24.620Z,-2.62
2022-12-20T03:04:43.729Z,-2.56
2022-12-20T03:07:52.291Z,-2.59
2022-12-20T03:11:00.437Z,-2.57
2022-12-20T03:14:07.978Z,-2.67
2022-12-20T03:17:14.819Z,-2.60
2022-12-20T03:20:25.243Z,-2.60
2022-12-20T03:23:30.745Z,-2.63
2022-12-20T03:26:37.284Z,-2.57
2022-12-20T03:29:43.000Z,-2.50
2022-12-20T03:32:49.464Z,-2.47
2022-12-20T03:35:58.158Z,-2.46
2022-12-20T03:39:04.713Z,-2.55
2022-12-20T03:42:14.231Z,-2.57
2022-12-20T03:45:21.104Z,-2.60
2022-12-20T03:48:27.457Z,-2.54
2022-12-20T03:51:36.499Z,-2.59
2022-12-20T03:54:42.287Z,-2.55
2022-12-20T03:57:58.470Z,-2.58
2022-12-20T04:01:24.976Z,-2.55
2022-12-20T04:04:33.350Z,-2.55
2022-12-20T04:07:42.444Z,-2.66
2022-12-20T04:11:04.603Z,-2.62
2022-12-20T04:14:13.352Z,-2.53
2022-12-20T04:17:19.641Z,-2.49
2022-12-20T04:20:26.507Z,-2.48
2022-12-20T04:23:53.001Z,-2.45
2022-12-20T04:26:58.376Z,-2.54
2022-12-20T04:30:04.679Z,-2.45
2022-12-20T04:33:10.921Z,-2.48
2022-12-20T04:36:18.524Z,-2.46
2022-12-20T04:39:26.988Z,-2.51
2022-12-20T04:42:52.029Z,-2.50
2022-12-20T04:45:59.804Z,-2.59
2022-12-20T04:49:08.336Z,-2.51
2022-12-20T04:52:33.960Z,-2.43
2022-12-20T04:55:44.350Z,-2.40
2022-12-20T04:58:53.192Z,-2.45
2022-12-20T05:01:59.555Z,-2.38
2022-12-20T05:05:22.389Z,-2.42
2022-12-20T05:08:32.615Z,-2.39
2022-12-20T05:11:41.381Z,-2.40
2022-12-20T05:14:48.572Z,-2.50
2022-12-20T05:17:59.655Z,-2.45
2022-12-20T05:21:28.477Z,-2.39
2022-12-20T05:24:49.821Z,-2.50
2022-12-20T05:28:11.102Z,-2.48
2022-12-20T05:31:16.754Z,-2.57
2022-12-20T05:34:23.509Z,-2.71
2022-12-20T05:37:31.947Z,-2.78
2022-12-20T05:40:50.231Z,-2.82
2022-12-20T05:43:59.127Z,-2.80
2022-12-20T05:47:06.769Z,-2.98
2022-12-20T05:50:19.153Z,-2.80
2022-12-20T05:53:44.947Z,-2.80
2022-12-20T05:56:52.793Z,-2.77
2022-12-20T06:00:09.961Z,-2.85
2022-12-20T06:03:22.674Z,-2.78
2022-12-20T06:06:29.904Z,-2.77
2022-12-20T06:09:36.729Z,-3.39
2022-12-20T06:12:50.220Z,-2.80
2022-12-20T06:16:00.689Z,-2.83
2022-12-20T06:19:07.467Z,-2.78
2022-12-20T06:22:14.697Z,-2.78
2022-12-20T06:25:24.405Z,-2.73
2022-12-20T06:28:31.181Z,-2.76
2022-12-20T06:31:40.733Z,-2.82
2022-12-20T06:34:46.244Z,-2.87
2022-12-20T06:37:52.467Z,-2.95
2022-12-20T06:40:58.080Z,-2.94
2022-12-20T06:44:04.775Z,-3.00
2022-12-20T06:47:13.593Z,-2.98
2022-12-20T06:50:19.956Z,-2.23
2022-12-20T06:53:25.673Z,-2.12
2022-12-20T06:56:34.812Z,-2.30
2022-12-20T06:59:48.158Z,-2.39
2022-12-20T07:02:57.724Z,-2.41
2022-12-20T07:06:03.546Z,-2.60
2022-12-20T07:09:10.325Z,-2.61
2022-12-20T07:12:16.836Z,-2.66
2022-12-20T07:15:23.032Z,-2.70
2022-12-20T07:18:31.600Z,-2.73
2022-12-20T07:21:38.691Z,-2.68
2022-12-20T07:24:44.168Z,-2.60
2022-12-20T07:27:51.775Z,-2.75
2022-12-20T07:30:58.096Z,-2.65
2022-12-20T07:34:07.083Z,-2.58
2022-12-20T07:37:12.553Z,-2.70
2022-12-20T07:40:19.205Z,-2.68
2022-12-20T07:43:25.433Z,-2.62
2022-12-20T07:46:32.903Z,-2.55
2022-12-20T07:49:41.302Z,-2.52
2022-12-20T07:52:52.801Z,-2.61
2022-12-20T07:56:01.030Z,-2.35
2022-12-20T07:59:08.035Z,-2.32
2022-12-20T08:02:21.727Z,-2.25
2022-12-20T08:05:31.855Z,-2.23
2022-12-20T08:08:47.233Z,-2.23
2022-12-20T08:11:55.037Z,-2.06
2022-12-20T08:15:01.490Z,-1.98
2022-12-20T08:18:08.529Z,-1.94
2022-12-20T08:21:16.787Z,-1.97
2022-12-20T08:24:23.313Z,-2.03
2022-12-20T08:27:28.871Z,-1.92
2022-12-20T08:30:35.176Z,-1.86
2022-12-20T08:33:42.959Z,-1.80
2022-12-20T08:36:52.740Z,-1.70
2022-12-20T08:39:58.096Z,-1.70
2022-12-20T08:43:10.013Z,-1.54
2022-12-20T08:46:16.794Z,-1.45
2022-12-20T08:49:23.307Z,-1.37
2022-12-20T08:52:31.984Z,-1.31
2022-12-20T08:55:38.273Z,-1.17
2022-12-20T08:58:44.985Z,-1.18
2022-12-20T09:01:51.491Z,-1.21
2022-12-20T09:04:56.989Z,-1.05
2022-12-20T09:08:06.039Z,-1.05
2022-12-20T09:11:15.043Z,-1.00
2022-12-20T09:14:22.946Z,-0.95
2022-12-20T09:17:28.324Z,-0.81
2022-12-20T09:20:35.797Z,-1.01
2022-12-20T09:23:44.818Z,-0.83
2022-12-20T09:26:52.287Z,-0.92
2022-12-20T09:29:57.706Z,-0.87
2022-12-20T09:33:08.352Z,-0.98
2022-12-20T09:36:20.427Z,-0.84
2022-12-20T09:39:29.716Z,-0.93
2022-12-20T09:42:35.691Z,-0.87
2022-12-20T09:45:42.512Z,-0.90
2022-12-20T09:48:51.175Z,-0.84
2022-12-20T09:52:30.930Z,-0.69
2022-12-20T09:55:50.213Z,-0.63
2022-12-20T09:59:07.545Z,-0.50
2022-12-20T10:02:55.256Z,-0.33
2022-12-20T10:05:56.614Z,-0.27
2022-12-20T10:09:14.660Z,-0.22
2022-12-20T10:12:45.571Z,-0.26
2022-12-20T10:16:01.668Z,-0.42
2022-12-20T10:19:39.965Z,-0.40
2022-12-20T10:22:56.095Z,-0.52
2022-12-20T10:26:02.433Z,-0.45
2022-12-20T10:29:10.749Z,-0.61
2022-12-20T10:32:21.352Z,-0.72
2022-12-20T10:35:33.316Z,-0.77
2022-12-20T10:38:49.573Z,-1.02
2022-12-20T10:41:55.692Z,-0.62
2022-12-20T10:45:06.700Z,-0.55
2022-12-20T10:48:33.320Z,-0.56
2022-12-20T10:51:39.565Z,-0.50
2022-12-20T10:54:47.989Z,-0.60
2022-12-20T10:57:54.499Z,-0.43
2022-12-20T11:01:18.455Z,-0.46
2022-12-20T11:04:32.771Z,-0.30
2022-12-20T11:07:38.996Z,-0.27
2022-12-20T11:10:45.925Z,-0.32
2022-12-20T11:13:54.800Z,-0.25
2022-12-20T11:17:22.708Z,-0.16
2022-12-20T11:20:43.991Z,-0.07
2022-12-20T11:24:05.610Z,0.01
2022-12-20T11:27:27.494Z,-0.02
2022-12-20T11:30:51.473Z,0.12
2022-12-20T11:34:19.882Z,0.21
2022-12-20T11:37:29.563Z,0.27
2022-12-20T11:40:45.683Z,0.44
2022-12-20T11:44:25.259Z,0.44
2022-12-20T11:48:10.001Z,0.57
2022-12-20T11:51:28.021Z,0.48
2022-12-20T11:54:44.996Z,0.46
2022-12-20T11:58:18.666Z,0.50
2022-12-20T12:01:34.670Z,0.44
2022-12-20T12:04:51.530Z,0.12
2022-12-20T12:08:14.849Z,0.10
2022-12-20T12:12:05.326Z,-0.14
2022-12-20T12:15:14.330Z,-0.05
2022-12-20T12:18:28.280Z,-0.26
2022-12-20T12:21:44.501Z,-0.08
2022-12-20T12:25:03.141Z,-0.13
2022-12-20T12:28:09.525Z,-0.31
2022-12-20T12:31:27.390Z,-0.33
2022-12-20T12:35:03.802Z,-0.21
2022-12-20T12:39:02.417Z,-0.21
2022-12-20T12:42:45.124Z,-0.22
2022-12-20T12:45:58.907Z,-0.41
2022-12-20T12:49:14.985Z,-0.20
2022-12-20T12:52:47.125Z,-0.14
2022-12-20T12:56:12.919Z,-0.16
2022-12-20T12:59:48.779Z,-0.25
2022-12-20T13:02:55.419Z,-0.23
2022-12-20T13:06:01.783Z,-0.33
2022-12-20T13:09:25.462Z,-0.24
2022-12-20T13:13:02.116Z,-0.18
2022-12-20T13:17:10.158Z,-0.29
2022-12-20T13:20:00.655Z,-0.50
2022-12-20T13:23:20.269Z,-0.42
2022-12-20T13:26:53.823Z,-0.51
2022-12-20T13:30:30.788Z,-0.59
2022-12-20T13:33:49.215Z,-0.51
2022-12-20T13:37:02.786Z,-0.50
2022-12-20T13:40:42.840Z,-0.57
2022-12-20T13:43:53.112Z,-0.46
2022-12-20T13:47:10.992Z,-0.45
2022-12-20T13:50:36.015Z,-0.41
2022-12-20T13:53:52.684Z,-0.54
2022-12-20T13:56:59.696Z,-0.54
2022-12-20T14:00:18.018Z,-0.55
2022-12-20T14:03:28.591Z,-0.59
2022-12-20T14:06:39.004Z,-0.70
2022-12-20T14:09:49.824Z,-0.77
2022-12-20T14:12:59.526Z,-0.86
2022-12-20T14:16:13.545Z,-0.86
2022-12-20T14:19:19.904Z,-1.02
2022-12-20T14:22:29.554Z,-0.94
2022-12-20T14:25:45.558Z,-0.97
2022-12-20T14:28:55.414Z,-0.98
2022-12-20T14:32:01.701Z,-0.95
2022-12-20T14:35:07.991Z,-0.97
2022-12-20T14:38:31.957Z,-0.93
2022-12-20T14:41:41.356Z,-0.91
2022-12-20T14:44:47.677Z,-0.99
2022-12-20T14:48:09.531Z,-0.92
2022-12-20T14:51:22.552Z,-0.94
2022-12-20T14:55:06.409Z,-0.89
2022-12-20T14:58:01.158Z,-0.94
2022-12-20T15:01:23.908Z,-1.03
2022-12-20T15:04:37.669Z,-0.98
2022-12-20T15:07:44.695Z,-0.95
2022-12-20T15:11:00.548Z,-1.00
2022-12-20T15:14:15.968Z,-1.00
2022-12-20T15:17:22.285Z,-0.98
2022-12-20T15:20:27.712Z,-0.93
2022-12-20T15:23:35.436Z,-0.84
2022-12-20T15:26:44.288Z,-1.06
2022-12-20T15:29:50.626Z,-0.78
2022-12-20T15:32:56.239Z,-0.69
2022-12-20T15:36:02.799Z,-0.66
2022-12-20T15:39:13.026Z,-0.61
2022-12-20T15:42:25.894Z,-0.69
2022-12-20T15:45:31.324Z,-0.81
2022-12-20T15:48:37.673Z,-0.89
2022-12-20T15:51:44.436Z,-0.92
2022-12-20T15:54:50.841Z,-0.92
2022-12-20T15:57:59.064Z,-0.93
2022-12-20T16:01:05.544Z,-0.92
2022-12-20T16:04:18.533Z,-1.02
2022-12-20T16:07:25.565Z,-1.03
2022-12-20T16:10:31.533Z,-1.10
2022-12-20T16:13:41.076Z,-1.11
2022-12-20T16:16:50.296Z,-1.14
2022-12-20T16:19:57.023Z,-1.28
2022-12-20T16:23:03.676Z,-1.35
2022-12-20T16:26:09.982Z,-1.38
2022-12-20T16:29:18.563Z,-1.46
2022-12-20T16:32:25.213Z,-1.38
2022-12-20T16:35:36.768Z,-1.32
2022-12-20T16:38:43.100Z,-1.37
2022-12-20T16:41:48.521Z,-1.40
2022-12-20T16:44:57.928Z,-1.38
2022-12-20T16:48:03.361Z,-1.54
2022-12-20T16:51:27.908Z,-1.48
2022-12-20T16:54:33.754Z,-1.44
2022-12-20T16:57:40.002Z,-1.47
2022-12-20T17:00:48.400Z,-1.44
2022-12-20T17:03:57.945Z,-1.43
2022-12-20T17:07:03.375Z,-1.34
2022-12-20T17:10:10.972Z,-1.32
2022-12-20T17:13:16.562Z,-1.31
2022-12-20T17:16:26.675Z,-1.32
2022-12-20T17:19:32.429Z,-1.35
2022-12-20T17:26:02.204Z,-1.44
2022-12-20T17:29:08.500Z,-1.44
2022-12-20T17:32:24.612Z,-1.50
2022-12-20T17:35:36.070Z,-1.44
2022-12-20T17:38:41.536Z,-1.47
2022-12-20T17:41:49.964Z,-1.59
2022-12-20T17:44:55.422Z,-1.55
2022-12-20T17:48:04.615Z,-1.45
2022-12-20T17:51:20.491Z,-1.39
2022-12-20T17:54:38.531Z,-1.39
2022-12-20T17:57:44.877Z,-1.29
2022-12-20T18:00:51.408Z,-1.37
2022-12-20T18:04:05.012Z,-1.42
2022-12-20T18:07:12.369Z,-1.46
2022-12-20T18:10:17.908Z,-1.43
2022-12-20T18:13:24.485Z,-1.49
2022-12-20T18:16:33.038Z,-1.43
2022-12-20T18:19:44.062Z,-1.39
2022-12-20T18:22:49.516Z,-1.34
2022-12-20T18:25:55.748Z,-1.35
2022-12-20T18:29:05.372Z,-1.42
2022-12-20T18:32:12.830Z,-1.35
2022-12-20T18:35:22.000Z,-1.38
2022-12-20T18:38:28.253Z,-1.45
2022-12-20T18:41:34.760Z,-1.45
2022-12-20T18:44:41.259Z,-1.44
2022-12-20T18:47:46.863Z,-1.53
2022-12-20T18:50:55.864Z,-1.61
2022-12-20T18:54:03.460Z,-1.67
2022-12-20T18:57:09.785Z,-1.73
2022-12-20T19:00:17.617Z,-1.75
2022-12-20T19:03:24.037Z,-1.71
2022-12-20T19:06:34.564Z,-1.79
2022-12-20T19:09:40.949Z,-1.72
2022-12-20T19:12:46.650Z,-1.76
2022-12-20T19:15:52.972Z,-1.83
2022-12-20T19:18:58.793Z,-1.82
2022-12-20T19:22:07.846Z,-1.84
2022-12-20T19:25:13.475Z,-1.77
2022-12-20T19:28:20.343Z,-1.82
2022-12-20T19:31:28.842Z,-1.82
2022-12-20T19:34:35.207Z,-1.84
2022-12-20T19:37:43.408Z,-1.79
2022-12-20T19:40:56.171Z,-1.79
2022-12-20T19:44:03.177Z,-1.80
2022-12-20T19:47:09.580Z,-1.71
2022-12-20T19:50:15.265Z,-1.71
2022-12-20T19:53:24.283Z,-1.70
2022-12-20T19:56:34.571Z,-1.69
2022-12-20T19:59:40.835Z,-1.67
2022-12-20T20:02:46.711Z,-1.69
2022-12-20T20:05:53.383Z,-1.68
2022-12-20T20:09:02.615Z,-1.71
2022-12-20T20:12:09.503Z,-1.69
2022-12-20T20:15:14.968Z,-1.71
2022-12-20T20:18:22.206Z,-1.79
2022-12-20T20:21:27.672Z,-1.85
2022-12-20T20:24:36.796Z,-1.86
2022-12-20T20:27:42.242Z,-1.87
2022-12-20T20:30:51.145Z,-1.87
2022-12-20T20:33:56.597Z,-1.80
2022-12-20T20:37:02.967Z,-1.76
2022-12-20T20:40:13.166Z,-1.68
2022-12-20T20:43:20.522Z,-1.64
2022-12-20T20:46:26.113Z,-1.60
2022-12-20T20:49:32.378Z,-1.58
2022-12-20T20:52:37.824Z,-1.60
2022-12-20T20:55:46.985Z,-1.66
2022-12-20T20:58:55.270Z,-1.63
2022-12-20T21:02:04.068Z,-1.55
2022-12-20T21:06:06.210Z,-1.50
2022-12-20T21:08:37.013Z,-1.49
2022-12-20T21:11:45.576Z,-1.45
2022-12-20T21:15:21.164Z,-1.45
2022-12-20T21:18:17.923Z,-1.41
2022-12-20T21:21:25.716Z,-1.34
2022-12-20T21:24:31.156Z,-1.26
2022-12-20T21:27:40.929Z,-1.20
2022-12-20T21:30:46.531Z,-1.17
2022-12-20T21:33:52.921Z,-1.13
2022-12-20T21:36:58.542Z,-1.23
2022-12-20T21:40:04.871Z,-1.23
2022-12-20T21:43:13.246Z,-1.19
2022-12-20T21:46:19.576Z,-1.21
2022-12-20T21:49:25.832Z,-1.22
2022-12-20T21:52:33.058Z,-1.31
2022-12-20T21:55:38.481Z,-1.36
2022-12-20T21:58:48.685Z,-1.39
2022-12-20T22:01:54.575Z,-1.32
2022-12-20T22:05:01.238Z,-1.27
2022-12-20T22:08:06.963Z,-1.19
2022-12-20T22:11:16.512Z,-1.10
2022-12-20T22:14:24.691Z,-1.13
2022-12-20T22:17:31.321Z,-1.09
2022-12-20T22:20:37.115Z,-1.13
2022-12-20T22:23:45.175Z,-1.12
2022-12-20T22:26:50.681Z,-1.08
2022-12-20T22:29:59.972Z,-1.04
2022-12-20T22:33:05.453Z,-0.99
2022-12-20T22:36:15.670Z,-1.01
2022-12-20T22:39:21.379Z,-0.97
2022-12-20T22:42:27.745Z,-0.97
2022-12-20T22:45:36.086Z,-1.04
2022-12-20T22:48:43.940Z,-1.10
2022-12-20T22:52:02.755Z,-1.13
2022-12-20T22:55:13.566Z,-1.10
2022-12-20T22:58:18.946Z,-1.05
2022-12-20T23:01:28.415Z,-1.04
2022-12-20T23:04:34.081Z,-1.07
2022-12-20T23:07:40.318Z,-1.06
2022-12-20T23:11:01.449Z,-1.06
2022-12-20T23:14:29.606Z,-1.21
2022-12-20T23:17:38.459Z,-1.07
2022-12-20T23:21:00.465Z,-1.07
2022-12-20T23:24:06.497Z,-1.29
2022-12-20T23:27:12.761Z,-1.36
2022-12-20T23:30:22.671Z,-1.38
2022-12-20T23:33:31.697Z,-1.37
2022-12-20T23:36:37.471Z,-1.38
2022-12-20T23:39:43.693Z,-1.38
2022-12-20T23:42:49.062Z,-1.38
2022-12-20T23:45:55.292Z,-1.46
2022-12-20T23:49:03.523Z,-1.51
2022-12-20T23:52:09.803Z,-1.49
2022-12-20T23:55:15.544Z,-1.52
2022-12-20T23:58:21.751Z,-1.47
